Landrum, South Carolina
Current Conditions -  °F | °C
As of 5:32 PM on Sunday 23 Nov 2014 (Local Time) from KGSP Reporting Station
Light Rain Light Rain  
Wind Chill: 41°   Ceiling: 400
Heat Index: 47°   Visibility: 1.5mi
Dew Point: 47°   Wind: 14mph
Humidity: 100%   Direction: 20°NNE
Pressure: 29.82"   Gusts: NA
Location:  35.18°N, 82.19°W
Report Text: KGSP 232232Z 02012KT 1 1/2SM -RA BR BKN004 OVC010 08/08 A2982 RMK AO2 P0013 T00830083
Loading
Personal Weather Stations






























Interactive Weather Map New forecast layout! Learn more

10-Day Weather Forecast

Advertisements
Track Severe Weather on mobile